Weather at Kerapak Airstrip

Public forecast

Using degrees Celsius for public forecast. Weather courtesy of forecast.io.

Closest aviation weather report (METAR) to Kerapak Airstrip

Closest report is Simanggang Airport, 72.8 nm (134.8 km) NNW.

(retrieved 0 seconds ago)

Closest aviation forecast (TAF) to Kerapak Airstrip

Closest forecast is Kuching International Airport, 125.4 nm (232.2 km) NW.

2024/05/22 06:12 (retrieved 0 seconds ago)

TAF TAF WBGG 220500Z 2206/2306 VRB03KT 9999 SCT018 TEMPO 2207/2211 30008KT 5000 -SHRA SCT016